Time;durP1;ratioP1;P1;durP2;ratioP2;P2;SDS_P1;SDS_P2;PMS_P1;PMS_P2;Temp;Humidity;BMP_temperature;BMP_pressure;BME280_temperature;BME280_humidity;BME280_pressure;Samples;Min_cycle;Max_cycle;Signal;HPM_P1;HPM_P2
2022/06/11 00:00:21;;;;;;;;;8.00;7.50;;;;;22.68;53.80;101619.97;2113331;27;47791;-63
2022/06/11 00:01:26;;;;;;;;;6.25;5.25;;;;;22.68;53.66;101617.28;2101503;28;47368;-63
2022/06/11 00:02:26;;;;;;;;;10.75;9.50;;;;;22.68;53.99;101618.13;2096198;28;47944;-64
2022/06/11 00:03:27;;;;;;;;;8.67;8.33;;;;;22.67;53.92;101613.69;2098130;28;48138;-64
2022/06/11 00:04:39;;;;;;;;;7.00;7.00;;;;;22.67;53.65;101615.53;2089206;28;46052;-64
2022/06/11 00:05:39;;;;;;;;;8.00;8.00;;;;;22.66;53.60;101616.50;2097525;28;47539;-64
2022/06/11 00:06:43;;;;;;;;;7.00;7.00;;;;;22.66;53.58;101619.19;2104880;28;48159;-64
2022/06/11 00:07:44;;;;;;;;;7.00;5.80;;;;;22.66;53.71;101619.19;2095950;28;47193;-64
2022/06/11 00:08:45;;;;;;;;;7.25;7.25;;;;;22.66;53.66;101617.38;2095789;28;47278;-64
2022/06/11 00:09:46;;;;;;;;;9.20;8.80;;;;;22.64;54.00;101619.28;2101946;28;47986;-63
2022/06/11 00:10:47;;;;;;;;;8.20;8.00;;;;;22.63;54.12;101620.25;2104758;28;47237;-64
2022/06/11 00:11:51;;;;;;;;;4.33;4.33;;;;;22.64;53.82;101615.72;2105067;28;47502;-63
2022/06/11 00:12:52;;;;;;;;;8.50;7.00;;;;;22.62;53.56;101610.41;2104448;28;48110;-63
2022/06/11 00:13:53;;;;;;;;;7.33;7.33;;;;;22.61;53.99;101614.94;2099418;28;47679;-63
2022/06/11 00:14:54;;;;;;;;;6.75;6.75;;;;;22.62;54.08;101610.41;2103974;27;47644;-65
2022/06/11 00:15:56;;;;;;;;;5.75;5.00;;;;;22.63;54.08;101616.69;2104804;28;47269;-65
2022/06/11 00:16:58;;;;;;;;;6.50;6.50;;;;;22.63;54.07;101613.97;2104014;28;47819;-64
2022/06/11 00:17:58;;;;;;;;;7.50;7.00;;;;;22.64;53.75;101615.72;2086990;28;46170;-64
2022/06/11 00:19:02;;;;;;;;;7.33;7.33;;;;;22.64;53.67;101615.72;2087072;28;47710;-65
2022/06/11 00:20:05;;;;;;;;;6.00;6.00;;;;;22.64;53.88;101613.00;2104796;28;48564;-65
2022/06/11 00:21:06;;;;;;;;;7.80;7.80;;;;;22.65;54.10;101609.34;2078521;28;45916;-63
2022/06/11 00:22:07;;;;;;;;;6.67;5.67;;;;;22.65;53.88;101615.63;2078499;28;48750;-64
2022/06/11 00:23:07;;;;;;;;;6.50;4.75;;;;;22.65;53.91;101604.81;2078705;28;47691;-64
2022/06/11 00:24:09;;;;;;;;;6.33;6.33;;;;;22.65;53.79;101607.50;2079976;28;47873;-64
2022/06/11 00:25:09;;;;;;;;;7.80;6.80;;;;;22.65;53.88;101604.81;2078702;28;47827;-64
2022/06/11 00:26:11;;;;;;;;;5.67;5.67;;;;;22.64;53.93;101619.28;2079540;28;47613;-64
2022/06/11 00:27:12;;;;;;;;;7.75;7.50;;;;;22.64;54.16;101619.28;2079813;28;47597;-64
2022/06/11 00:28:13;;;;;;;;;5.50;5.50;;;;;22.62;53.78;101602.28;2078618;28;48152;-64
2022/06/11 00:29:14;;;;;;;;;6.00;6.00;;;;;22.61;54.06;101614.03;2079754;28;47599;-64
2022/06/11 00:30:15;;;;;;;;;5.20;4.80;;;;;22.59;54.21;101618.66;2079586;28;47886;-63
2022/06/11 00:31:16;;;;;;;;;6.50;6.50;;;;;22.57;53.94;101609.78;2078551;28;46899;-64
2022/06/11 00:32:17;;;;;;;;;7.25;6.75;;;;;22.54;54.27;101613.53;2079666;28;47755;-64
2022/06/11 00:33:17;;;;;;;;;6.67;6.00;;;;;22.53;53.97;101611.78;2078681;28;47494;-64
2022/06/11 00:34:19;;;;;;;;;8.50;6.00;;;;;22.53;54.25;101617.19;2079518;28;47541;-64
2022/06/11 00:35:19;;;;;;;;;7.00;7.00;;;;;22.51;54.12;101616.41;2079583;28;47621;-64
2022/06/11 00:36:20;;;;;;;;;5.67;5.67;;;;;22.50;54.16;101614.69;2078551;28;47525;-64
2022/06/11 00:37:20;;;;;;;;;7.67;6.67;;;;;22.48;54.07;101613.88;2079776;28;47874;-64
2022/06/11 00:38:23;;;;;;;;;8.00;8.00;;;;;22.49;54.04;101612.06;2079735;28;48172;-64
2022/06/11 00:39:28;;;;;;;;;6.75;6.75;;;;;22.47;54.05;101614.81;2078690;28;47906;-64
2022/06/11 00:40:30;;;;;;;;;7.00;7.00;;;;;22.45;54.24;101611.34;2079469;28;47693;-65
2022/06/11 00:41:35;;;;;;;;;7.50;6.00;;;;;22.44;54.75;101614.13;2078529;28;46779;-64
2022/06/11 00:42:35;;;;;;;;;7.00;6.00;;;;;22.43;54.42;101615.97;2083130;28;48001;-64
2022/06/11 00:43:39;;;;;;;;;6.00;5.33;;;;;22.41;54.35;101612.50;2084713;28;48007;-64
2022/06/11 00:44:39;;;;;;;;;8.75;8.75;;;;;22.40;54.58;101615.28;2086927;28;47959;-63
2022/06/11 00:45:59;;;;;;;;;6.00;6.00;;;;;22.38;54.35;101617.22;2084186;28;47459;-63
2022/06/11 00:47:09;;;;;;;;;5.50;5.50;;;;;22.37;54.71;101612.75;2084407;28;47930;-64
2022/06/11 00:48:18;;;;;;;;;7.00;7.00;;;;;22.35;54.56;101612.81;2085128;28;47559;-64
2022/06/11 00:49:28;;;;;;;;;5.25;5.25;;;;;22.36;54.88;101605.56;2070807;28;46549;-64
2022/06/11 00:50:40;;;;;;;;;6.00;6.00;;;;;22.36;54.49;101605.56;2083238;28;46615;-64
2022/06/11 00:51:40;;;;;;;;;6.25;6.25;;;;;22.36;55.02;101611.91;2084117;28;47197;-64
2022/06/11 00:52:44;;;;;;;;;6.00;6.00;;;;;22.37;54.49;101612.75;2096462;27;47428;-64
2022/06/11 00:53:51;;;;;;;;;9.00;8.75;;;;;22.37;54.63;101612.75;2110534;27;47680;-63
2022/06/11 00:55:01;;;;;;;;;8.25;7.00;;;;;22.36;54.71;101608.28;2106225;27;47637;-63
2022/06/11 00:56:06;;;;;;;;;7.25;7.25;;;;;22.34;54.88;101619.19;2112780;27;47574;-63
2022/06/11 00:57:08;;;;;;;;;6.50;6.50;;;;;22.32;54.61;101615.72;2111482;27;47634;-63
2022/06/11 00:58:14;;;;;;;;;7.75;7.25;;;;;22.30;55.29;101613.09;2110102;27;48197;-64
2022/06/11 00:59:21;;;;;;;;;8.75;8.75;;;;;22.30;55.40;101617.63;2103716;28;47930;-64
2022/06/11 01:00:29;;;;;;;;;8.00;8.00;;;;;22.30;54.88;101609.53;2103267;27;48303;-64
2022/06/11 01:01:30;;;;;;;;;7.50;7.50;;;;;22.28;55.08;101615.00;2110190;27;48340;-64
2022/06/11 01:02:30;;;;;;;;;6.00;6.00;;;;;22.26;55.49;101614.22;2112469;27;47694;-65
2022/06/11 01:03:35;;;;;;;;;8.67;8.33;;;;;22.25;55.14;101609.78;2110861;27;47553;-64
2022/06/11 01:04:44;;;;;;;;;7.00;6.00;;;;;22.23;55.40;101611.72;2109944;27;47669;-64
2022/06/11 01:05:50;;;;;;;;;8.25;8.00;;;;;22.23;55.40;101611.72;2106216;27;47984;-64
2022/06/11 01:07:04;;;;;;;;;8.75;8.75;;;;;22.22;54.98;101612.63;2111551;27;47724;-64
2022/06/11 01:08:14;;;;;;;;;7.50;7.50;;;;;22.23;55.09;101617.13;2110204;27;46433;-64
2022/06/11 01:09:39;;;;;;;;;7.25;7.25;;;;;22.23;55.50;101618.91;2110233;27;47588;-64
2022/06/11 01:11:31;;;;;;;;;9.00;8.00;;;;;22.23;55.44;101619.81;2111351;27;47898;-65
2022/06/11 01:12:42;;;;;;;;;8.25;7.00;;;;;22.21;55.58;101615.44;2092150;28;47904;-65
2022/06/11 01:14:10;;;;;;;;;6.25;6.25;;;;;22.20;55.44;101614.56;2091141;28;47736;-65
2022/06/11 01:15:17;;;;;;;;;7.50;6.25;;;;;22.20;55.76;101621.81;2070400;28;47753;-64
2022/06/11 01:16:39;;;;;;;;;10.50;7.75;;;;;22.18;55.45;101616.47;2084023;28;47774;-65
2022/06/11 01:18:04;;;;;;;;;6.25;6.25;;;;;22.17;55.79;101612.03;2083988;28;47140;-65
2022/06/11 01:19:48;;;;;;;;;9.25;9.25;;;;;22.17;55.29;101616.56;2086730;28;47869;-64
2022/06/11 01:20:56;;;;;;;;;7.33;7.33;;;;;22.16;55.77;101612.13;2087463;28;47690;-64
2022/06/11 01:22:33;;;;;;;;;7.75;7.75;;;;;22.13;55.48;101609.59;2086842;28;47600;-64
2022/06/11 01:23:56;;;;;;;;;9.50;7.25;;;;;22.11;55.43;101617.81;2078659;28;47617;-65
2022/06/11 01:25:21;;;;;;;;;7.25;7.25;;;;;22.10;55.73;101612.44;2077485;28;47313;-64
2022/06/11 01:26:58;;;;;;;;;5.50;5.50;;;;;22.08;55.90;101611.66;2086501;28;48151;-65
2022/06/11 01:28:47;;;;;;;;;6.75;5.75;;;;;22.07;55.89;101610.78;2086245;28;47881;-65
2022/06/11 01:29:56;;;;;;;;;8.25;7.25;;;;;22.07;55.65;101609.94;2053712;28;48062;-64
2022/06/11 01:31:01;;;;;;;;;7.00;6.50;;;;;22.07;55.64;101612.63;2053866;28;48157;-64
2022/06/11 01:32:31;;;;;;;;;7.75;7.75;;;;;22.07;55.52;101605.38;2053568;28;48064;-64
2022/06/11 01:33:49;;;;;;;;;10.00;5.25;;;;;22.07;55.40;101604.53;2037962;28;47416;-64
2022/06/11 01:35:02;;;;;;;;;8.25;7.25;;;;;22.05;55.78;101607.28;2037880;28;48123;-64
2022/06/11 01:36:17;;;;;;;;;7.00;7.00;;;;;22.05;55.66;101609.97;2037916;28;47949;-64
2022/06/11 01:37:30;;;;;;;;;6.50;6.50;;;;;22.03;55.44;101610.06;2038124;28;48166;-64
2022/06/11 01:38:38;;;;;;;;;9.25;7.75;;;;;22.03;55.84;101606.50;2038135;28;48006;-64
2022/06/11 01:39:55;;;;;;;;;6.00;6.00;;;;;22.01;55.94;101609.28;2037878;28;47713;-64
2022/06/11 01:41:28;;;;;;;;;8.50;8.50;;;;;22.01;56.18;101613.81;2043979;28;45743;-65
2022/06/11 01:42:39;;;;;;;;;8.75;5.75;;;;;21.99;55.51;101613.91;2042930;28;48026;-64
2022/06/11 01:43:43;;;;;;;;;10.25;7.75;;;;;22.00;56.15;101620.19;2042913;28;48671;-65
2022/06/11 01:44:45;;;;;;;;;7.75;7.75;;;;;21.99;56.17;101618.44;2045776;28;47783;-65
2022/06/11 01:45:47;;;;;;;;;8.00;8.00;;;;;21.97;55.67;101615.78;2043429;28;47383;-64
2022/06/11 01:46:51;;;;;;;;;48.00;40.20;;;;;21.98;56.27;101611.28;2042896;28;47733;-64
2022/06/11 01:47:52;;;;;;;;;104.33;103.00;;;;;21.98;55.95;101612.16;2045703;28;47597;-63
2022/06/11 01:49:00;;;;;;;;;125.67;117.67;;;;;21.98;56.25;101614.00;2038307;28;47728;-64
2022/06/11 01:50:01;;;;;;;;;186.50;181.75;;;;;21.99;55.94;101613.91;2043189;28;47936;-64
2022/06/11 01:51:38;;;;;;;;;110.67;106.00;;;;;22.00;56.37;101617.47;2061452;28;47209;-63
2022/06/11 01:52:47;;;;;;;;;73.00;64.75;;;;;22.00;55.69;101615.66;2066600;28;47813;-63
2022/06/11 01:54:20;;;;;;;;;59.40;47.60;;;;;22.00;56.13;101607.53;2067190;28;47559;-63
2022/06/11 01:55:45;;;;;;;;;35.20;32.00;;;;;22.00;56.39;101617.47;2066375;28;47604;-63
2022/06/11 01:57:08;;;;;;;;;33.80;30.00;;;;;22.00;56.25;101617.47;2067003;28;47709;-63
2022/06/11 01:58:30;;;;;;;;;24.00;22.40;;;;;21.99;56.03;101610.34;2047706;28;47521;-62
2022/06/11 01:59:55;;;;;;;;;25.40;22.60;;;;;22.00;55.73;101620.19;2051634;28;47424;-62
2022/06/11 02:00:58;;;;;;;;;18.00;17.80;;;;;21.99;55.85;101623.84;2053226;28;48306;-63
2022/06/11 02:02:14;;;;;;;;;16.80;16.80;;;;;21.97;56.32;101615.78;2045816;28;47324;-61
2022/06/11 02:03:33;;;;;;;;;23.20;21.00;;;;;21.97;56.26;101613.09;2049369;28;47526;-62
2022/06/11 02:05:04;;;;;;;;;23.00;21.00;;;;;21.98;55.78;101625.69;2051161;28;48099;-62
2022/06/11 02:06:20;;;;;;;;;13.00;12.75;;;;;22.00;55.93;101622.88;2041024;28;47783;-62
2022/06/11 02:07:25;;;;;;;;;16.00;16.00;;;;;21.99;56.08;101626.56;2045488;28;47736;-63
2022/06/11 02:08:46;;;;;;;;;16.20;15.40;;;;;21.99;55.87;101621.16;2052284;28;47517;-62
2022/06/11 02:10:23;;;;;;;;;15.25;14.50;;;;;21.99;56.21;101622.03;2051282;28;47767;-62
2022/06/11 02:11:38;;;;;;;;;12.50;12.25;;;;;21.99;56.32;101627.44;2063455;28;47797;-62
2022/06/11 02:12:48;;;;;;;;;13.25;13.25;;;;;21.99;56.09;101623.84;2075523;28;47924;-63
2022/06/11 02:14:03;;;;;;;;;15.80;14.60;;;;;21.99;56.15;101627.44;2073409;28;47932;-62
2022/06/11 02:15:14;;;;;;;;;17.80;17.40;;;;;21.98;56.02;101625.69;2061845;28;47799;-62
2022/06/11 02:16:56;;;;;;;;;7.75;7.75;;;;;21.98;55.82;101631.09;2073349;28;47855;-61
2022/06/11 02:18:05;;;;;;;;;13.50;12.25;;;;;21.97;56.48;101623.91;2067599;28;47622;-62
2022/06/11 02:19:10;;;;;;;;;14.75;12.50;;;;;21.96;56.50;101626.69;2066143;28;46976;-62
2022/06/11 02:20:25;;;;;;;;;16.25;14.25;;;;;21.95;56.37;101622.25;2061760;28;47854;-62
2022/06/11 02:21:32;;;;;;;;;15.75;14.00;;;;;21.94;56.58;101624.09;2053435;28;47875;-62
2022/06/11 02:22:47;;;;;;;;;7.75;7.50;;;;;21.93;56.31;101625.03;2053907;28;47655;-62
2022/06/11 02:24:04;;;;;;;;;10.25;10.25;;;;;21.92;56.53;101625.13;2061425;28;47735;-61
2022/06/11 02:25:12;;;;;;;;;10.75;10.25;;;;;21.92;56.08;101625.13;2061769;28;47677;-62
2022/06/11 02:26:27;;;;;;;;;13.50;13.00;;;;;21.91;56.60;101621.56;2062323;28;47659;-62
2022/06/11 02:27:31;;;;;;;;;12.25;12.25;;;;;21.90;56.70;101624.34;2062298;28;47722;-61
2022/06/11 02:28:36;;;;;;;;;11.75;11.75;;;;;21.89;56.32;101623.47;2061294;28;47936;-61
2022/06/11 02:29:39;;;;;;;;;12.50;10.25;;;;;21.88;56.67;101624.44;2061721;28;47664;-61
2022/06/11 02:30:42;;;;;;;;;9.50;8.50;;;;;21.87;56.12;101628.09;2062139;28;47684;-63
2022/06/11 02:31:49;;;;;;;;;10.50;10.50;;;;;21.87;56.35;101630.78;2061845;28;47500;-63
2022/06/11 02:32:50;;;;;;;;;13.50;11.00;;;;;21.86;56.52;101630.88;2062124;28;47804;-62
2022/06/11 02:33:51;;;;;;;;;8.25;8.25;;;;;21.86;55.99;101628.19;2061922;28;48178;-61
2022/06/11 02:34:59;;;;;;;;;8.00;8.00;;;;;21.85;56.02;101623.69;2061786;28;47841;-63
2022/06/11 02:36:12;;;;;;;;;11.25;9.75;;;;;21.86;56.44;101628.19;2076641;28;48171;-62
2022/06/11 02:37:24;;;;;;;;;6.75;6.75;;;;;21.87;56.36;101632.63;2086491;28;47684;-62
2022/06/11 02:38:27;;;;;;;;;2.75;2.75;;;;;21.88;56.27;101628.97;2086092;28;48106;-61
2022/06/11 02:39:31;;;;;;;;;7.75;7.75;;;;;21.87;56.28;101630.78;2086665;28;47983;-62
2022/06/11 02:40:42;;;;;;;;;9.50;9.50;;;;;21.87;56.30;101629.94;2087465;28;47634;-62
2022/06/11 02:41:43;;;;;;;;;9.75;9.75;;;;;21.86;56.49;101631.75;2087633;28;47621;-62
2022/06/11 02:42:44;;;;;;;;;8.25;7.50;;;;;21.87;56.44;101629.94;2095166;28;47627;-62
2022/06/11 02:43:46;;;;;;;;;7.50;6.75;;;;;21.86;56.63;101629.06;2093148;28;47646;-62
2022/06/11 02:44:47;;;;;;;;;7.00;6.50;;;;;21.85;56.36;101634.50;2096150;28;47879;-63
2022/06/11 02:45:48;;;;;;;;;8.75;8.25;;;;;21.85;56.12;101632.72;2093986;28;47638;-63
2022/06/11 02:46:49;;;;;;;;;8.00;6.00;;;;;21.86;56.40;101633.59;2093428;28;47649;-62
2022/06/11 02:47:51;;;;;;;;;6.50;6.50;;;;;21.86;56.33;101631.75;2096116;28;48001;-63
2022/06/11 02:48:55;;;;;;;;;7.25;7.25;;;;;21.86;56.50;101633.59;2093297;28;47342;-62
2022/06/11 02:49:55;;;;;;;;;9.00;7.50;;;;;21.85;56.55;101634.50;2111428;27;48120;-62
2022/06/11 02:50:56;;;;;;;;;6.67;6.67;;;;;21.85;56.17;101634.50;2114065;27;47877;-62
2022/06/11 02:52:00;;;;;;;;;8.00;6.00;;;;;21.85;56.10;101637.22;2111013;27;47846;-62
2022/06/11 02:53:03;;;;;;;;;7.25;7.25;;;;;21.84;56.77;101640.88;2112563;27;47375;-62
2022/06/11 02:54:04;;;;;;;;;6.00;6.00;;;;;21.84;56.87;101640.88;2111345;27;47938;-62
2022/06/11 02:55:05;;;;;;;;;4.67;4.67;;;;;21.83;56.51;101631.91;2107921;27;47390;-62
2022/06/11 02:56:05;;;;;;;;;5.60;5.60;;;;;21.81;56.12;101635.63;2113320;27;46978;-62
2022/06/11 02:57:08;;;;;;;;;6.25;6.25;;;;;21.81;56.80;101638.34;2102385;28;48119;-62
2022/06/11 02:58:10;;;;;;;;;7.25;6.00;;;;;21.80;56.60;101633.91;2101796;27;48118;-62
2022/06/11 02:59:11;;;;;;;;;9.20;9.20;;;;;21.79;56.77;101635.72;2113649;27;47919;-62
2022/06/11 03:00:19;;;;;;;;;7.75;7.75;;;;;21.80;56.73;101642.00;2110886;27;47617;-62
2022/06/11 03:01:21;;;;;;;;;8.50;8.50;;;;;21.79;56.47;101633.03;2110780;27;47319;-62
2022/06/11 03:02:25;;;;;;;;;5.75;5.00;;;;;21.79;56.69;101633.03;2113653;27;47970;-62
2022/06/11 03:03:25;;;;;;;;;8.40;8.40;;;;;21.78;56.62;101633.13;2110720;27;47648;-62
2022/06/11 03:04:28;;;;;;;;;7.00;7.00;;;;;21.79;56.56;101642.97;2111098;27;47393;-62
2022/06/11 03:05:31;;;;;;;;;6.75;5.50;;;;;21.79;56.31;101641.13;2109784;27;47906;-62
2022/06/11 03:06:32;;;;;;;;;4.00;4.00;;;;;21.78;56.22;101633.97;2109188;27;47831;-62
2022/06/11 03:07:33;;;;;;;;;6.25;6.25;;;;;21.77;56.35;101637.66;2111925;27;47686;-62
2022/06/11 03:08:34;;;;;;;;;5.33;5.33;;;;;21.77;56.74;101643.06;2112675;27;48030;-62
2022/06/11 03:09:36;;;;;;;;;7.00;7.00;;;;;21.77;56.27;101640.34;2110835;27;46793;-63
2022/06/11 03:10:37;;;;;;;;;6.25;5.25;;;;;21.77;56.92;101639.47;2113162;27;47900;-64
2022/06/11 03:11:38;;;;;;;;;9.50;7.75;;;;;21.76;56.45;101641.31;2093329;28;47888;-64
2022/06/11 03:12:38;;;;;;;;;7.00;4.00;;;;;21.76;56.31;101643.13;2092722;28;47155;-64
2022/06/11 03:13:39;;;;;;;;;9.50;9.50;;;;;21.75;56.29;101644.97;2110246;27;47815;-64
2022/06/11 03:14:41;;;;;;;;;8.75;8.75;;;;;21.73;56.92;101642.34;2110090;27;48559;-64
2022/06/11 03:15:42;;;;;;;;;9.20;9.20;;;;;21.73;56.43;101639.66;2084443;28;47949;-64
2022/06/11 03:16:44;;;;;;;;;11.33;10.00;;;;;21.72;56.72;101643.31;2087416;28;46732;-64
2022/06/11 03:17:46;;;;;;;;;8.00;8.00;;;;;21.73;56.69;101655.00;2110750;27;47681;-64
2022/06/11 03:18:46;;;;;;;;;11.60;11.60;;;;;21.71;56.78;101652.34;2112226;27;47714;-64
2022/06/11 03:19:47;;;;;;;;;9.00;8.33;;;;;21.70;56.68;101650.59;2105317;28;47398;-64
2022/06/11 03:20:50;;;;;;;;;8.80;8.80;;;;;21.70;56.99;101641.63;2108535;27;48129;-64
2022/06/11 03:21:54;;;;;;;;;9.40;9.40;;;;;21.70;57.01;101649.72;2113190;27;47609;-63
2022/06/11 03:22:55;;;;;;;;;11.00;10.80;;;;;21.69;57.00;101651.56;2099205;27;48326;-64
2022/06/11 03:23:55;;;;;;;;;12.00;10.80;;;;;21.68;56.50;101641.72;2098211;27;47430;-64
2022/06/11 03:24:57;;;;;;;;;11.50;11.00;;;;;21.67;56.57;101648.06;2105411;28;47778;-64
2022/06/11 03:25:59;;;;;;;;;11.40;11.00;;;;;21.67;56.83;101645.38;2105324;27;48132;-63
2022/06/11 03:27:00;;;;;;;;;11.40;11.40;;;;;21.68;56.62;101651.63;2105605;27;46856;-63
2022/06/11 03:28:08;;;;;;;;;10.00;8.75;;;;;21.68;56.77;101652.50;2104871;28;47880;-63
2022/06/11 03:29:10;;;;;;;;;14.00;13.20;;;;;21.67;56.44;101648.06;2096205;28;47854;-64
2022/06/11 03:30:13;;;;;;;;;12.20;12.00;;;;;21.67;56.79;101649.91;2096195;28;48377;-63
2022/06/11 03:31:14;;;;;;;;;10.00;10.00;;;;;21.65;56.58;101651.81;2105195;28;46421;-63
2022/06/11 03:32:14;;;;;;;;;10.00;10.00;;;;;21.64;57.17;101647.38;2105153;27;48203;-63
2022/06/11 03:33:15;;;;;;;;;11.25;9.75;;;;;21.62;56.68;101644.75;2105367;27;47651;-64
2022/06/11 03:34:16;;;;;;;;;11.60;11.60;;;;;21.63;56.85;101651.03;2105114;27;48011;-63
2022/06/11 03:35:17;;;;;;;;;14.75;13.75;;;;;21.62;57.03;101643.88;2105071;27;47733;-64
2022/06/11 03:36:18;;;;;;;;;8.67;8.67;;;;;21.62;56.56;101649.28;2105128;28;47615;-63
2022/06/11 03:37:19;;;;;;;;;11.25;11.25;;;;;21.61;57.24;101648.41;2105153;27;48080;-63
2022/06/11 03:38:20;;;;;;;;;11.00;11.00;;;;;21.60;57.02;101653.91;2105137;27;47563;-63
2022/06/11 03:39:21;;;;;;;;;9.40;9.20;;;;;21.61;57.28;101661.03;2104951;28;48288;-62
2022/06/11 03:40:22;;;;;;;;;10.75;9.50;;;;;21.59;57.22;101653.00;2102411;27;47688;-62
2022/06/11 03:41:23;;;;;;;;;9.00;8.50;;;;;21.58;57.03;101656.66;2105244;28;48165;-63
2022/06/11 03:42:24;;;;;;;;;11.33;9.33;;;;;21.57;57.26;101657.59;2109783;27;47715;-63
2022/06/11 03:43:27;;;;;;;;;10.75;10.75;;;;;21.57;56.91;101659.44;2110853;27;47684;-63
2022/06/11 03:44:28;;;;;;;;;11.25;9.75;;;;;21.57;57.24;101660.31;2113354;27;48232;-63
2022/06/11 03:45:28;;;;;;;;;9.67;9.67;;;;;21.57;57.27;101663.00;2110630;27;47726;-62
2022/06/11 03:46:29;;;;;;;;;7.00;7.00;;;;;21.57;57.38;101663.00;2112463;27;47662;-63
2022/06/11 03:47:29;;;;;;;;;7.33;6.67;;;;;21.58;56.83;101666.59;2112017;27;48064;-63
2022/06/11 03:48:32;;;;;;;;;6.67;6.67;;;;;21.57;57.21;101663.00;2108886;27;47175;-63
2022/06/11 03:49:32;;;;;;;;;6.50;6.50;;;;;21.57;57.23;101672.94;2105049;28;47718;-64
2022/06/11 03:50:36;;;;;;;;;5.67;5.67;;;;;21.57;57.33;101670.25;2110638;27;47513;-64
2022/06/11 03:51:37;;;;;;;;;6.00;6.00;;;;;21.57;56.97;101670.25;2110707;27;47048;-64
2022/06/11 03:52:38;;;;;;;;;10.00;8.00;;;;;21.58;57.48;101674.69;2113475;27;48055;-64
2022/06/11 03:53:40;;;;;;;;;8.67;8.67;;;;;21.56;57.06;101672.06;2110928;27;47668;-64
2022/06/11 03:54:41;;;;;;;;;7.00;7.00;;;;;21.57;57.04;101678.34;2106835;27;47619;-64
2022/06/11 03:55:43;;;;;;;;;6.00;6.00;;;;;21.56;56.90;101674.78;2113167;27;47862;-64
2022/06/11 03:56:46;;;;;;;;;8.25;8.25;;;;;21.56;57.28;101677.47;2110513;27;47733;-64
2022/06/11 03:57:46;;;;;;;;;7.25;7.25;;;;;21.56;57.50;101684.69;2111903;27;48048;-64
2022/06/11 03:58:48;;;;;;;;;6.00;5.67;;;;;21.55;57.12;101682.94;2111946;27;47905;-64
2022/06/11 03:59:49;;;;;;;;;6.50;6.50;;;;;21.53;57.31;101685.75;2110203;27;48240;-65
2022/06/11 04:02:09;;;;;;;;;9.00;8.00;;;;;21.52;57.06;101683.13;2113332;27;48174;-63
2022/06/11 04:03:12;;;;;;;;;6.67;6.67;;;;;21.52;57.74;101691.22;2110427;27;47862;-62
2022/06/11 04:04:15;;;;;;;;;4.75;4.75;;;;;21.51;57.13;101690.34;2112055;27;48001;-62
2022/06/11 04:05:15;;;;;;;;;6.00;5.20;;;;;21.51;57.47;101690.34;2109758;27;47548;-62
2022/06/11 04:06:19;;;;;;;;;6.50;6.25;;;;;21.52;57.33;101689.41;2104656;27;47659;-62
2022/06/11 04:07:19;;;;;;;;;13.60;9.80;;;;;21.52;57.36;101691.22;2104816;27;48028;-62
2022/06/11 04:08:22;;;;;;;;;7.00;7.00;;;;;21.54;57.73;101692.88;2110926;27;48044;-63
2022/06/11 04:09:40;;;;;;;;;6.00;6.00;;;;;21.55;57.51;101691.06;2110517;27;46744;-62
2022/06/11 04:10:41;;;;;;;;;6.00;6.00;;;;;21.55;57.27;101696.47;2111990;27;48080;-62
2022/06/11 04:11:42;;;;;;;;;6.75;6.75;;;;;21.55;57.43;101704.56;2112292;27;47566;-62
2022/06/11 04:12:42;;;;;;;;;4.75;4.75;;;;;21.53;57.56;101704.66;2110536;27;47494;-62
2022/06/11 04:13:44;;;;;;;;;7.33;7.33;;;;;21.52;57.76;101705.59;2099786;28;47643;-62
2022/06/11 04:14:47;;;;;;;;;7.00;7.00;;;;;21.52;57.82;101702.03;2095213;28;47996;-63
2022/06/11 04:15:48;;;;;;;;;6.50;6.25;;;;;21.51;57.75;101706.56;2105941;27;48138;-62
2022/06/11 04:16:53;;;;;;;;;5.00;5.00;;;;;21.51;57.24;101709.25;2095308;28;47669;-62
2022/06/11 04:17:53;;;;;;;;;5.75;5.75;;;;;21.50;57.29;101710.22;2093746;27;47662;-63
2022/06/11 04:18:57;;;;;;;;;8.00;8.00;;;;;21.51;57.32;101708.38;2111375;27;47835;-61
2022/06/11 04:19:58;;;;;;;;;8.00;6.75;;;;;21.51;57.91;101708.38;2113242;27;48194;-61
2022/06/11 04:21:01;;;;;;;;;7.00;7.00;;;;;21.51;57.98;101719.19;2101966;28;47826;-62
2022/06/11 04:22:03;;;;;;;;;6.75;6.00;;;;;21.52;57.26;101712.84;2102535;28;47761;-62
2022/06/11 04:23:04;;;;;;;;;6.25;6.25;;;;;21.50;57.52;101717.44;2097807;27;47947;-63
2022/06/11 04:24:05;;;;;;;;;5.33;5.33;;;;;21.49;57.49;101721.09;2090859;28;48058;-62
2022/06/11 04:25:06;;;;;;;;;4.75;4.75;;;;;21.48;57.86;101717.53;2087832;28;47522;-62
2022/06/11 04:26:14;;;;;;;;;5.80;5.80;;;;;21.47;57.60;101717.56;2095618;28;47848;-62
2022/06/11 04:27:17;;;;;;;;;5.20;5.20;;;;;21.45;57.54;101709.56;2105386;27;47764;-63
2022/06/11 04:28:17;;;;;;;;;5.60;5.60;;;;;21.44;58.04;101716.78;2104309;28;47551;-63
2022/06/11 04:29:22;;;;;;;;;5.00;5.00;;;;;21.45;58.10;101720.34;2105488;27;46513;-63
2022/06/11 04:30:24;;;;;;;;;5.00;5.00;;;;;21.44;57.77;101722.19;2105201;27;47464;-63
2022/06/11 04:31:25;;;;;;;;;5.40;5.00;;;;;21.42;57.61;101718.69;2104621;28;48193;-64
2022/06/11 04:32:28;;;;;;;;;7.00;6.00;;;;;21.42;57.56;101715.13;2105093;27;47185;-63
2022/06/11 04:33:29;;;;;;;;;6.80;6.80;;;;;21.41;57.98;101719.66;2104739;27;47751;-63
2022/06/11 04:34:30;;;;;;;;;5.00;5.00;;;;;21.41;57.52;101724.19;2104609;27;47629;-62
2022/06/11 04:35:30;;;;;;;;;7.00;7.00;;;;;21.40;57.48;101726.00;2105124;27;47481;-62
2022/06/11 04:36:33;;;;;;;;;7.25;6.50;;;;;21.40;57.70;101719.72;2104689;28;47357;-62
2022/06/11 04:37:33;;;;;;;;;6.80;6.80;;;;;21.40;57.72;101722.44;2105090;27;47766;-62
2022/06/11 04:38:34;;;;;;;;;6.00;6.00;;;;;21.40;58.10;101728.72;2101593;27;47565;-62
2022/06/11 04:39:34;;;;;;;;;6.00;6.00;;;;;21.40;57.85;101728.72;2104903;28;47355;-62
2022/06/11 04:40:35;;;;;;;;;6.67;6.67;;;;;21.40;58.02;101726.00;2102584;27;47429;-62
2022/06/11 04:41:35;;;;;;;;;6.75;6.75;;;;;21.40;58.24;101731.41;2104627;27;47401;-62
2022/06/11 04:42:36;;;;;;;;;6.00;6.00;;;;;21.42;58.05;101728.63;2111597;27;47594;-62
2022/06/11 04:43:37;;;;;;;;;6.00;6.00;;;;;21.44;58.43;101729.41;2110830;27;47662;-63
2022/06/11 04:44:42;;;;;;;;;8.50;8.50;;;;;21.45;58.28;101733.88;2113265;27;47406;-62
2022/06/11 04:45:42;;;;;;;;;7.50;6.50;;;;;21.45;57.80;101734.72;2111129;27;47596;-62
2022/06/11 04:46:43;;;;;;;;;7.00;7.00;;;;;21.46;57.93;101738.31;2101794;28;47222;-62
2022/06/11 04:47:45;;;;;;;;;4.67;4.67;;;;;21.44;58.41;101734.81;2104281;28;47546;-62
2022/06/11 04:48:46;;;;;;;;;7.00;7.00;;;;;21.44;58.38;101733.00;2106580;27;47587;-63
2022/06/11 04:49:48;;;;;;;;;8.75;6.50;;;;;21.43;57.95;101733.94;2104511;27;47423;-62
2022/06/11 04:50:48;;;;;;;;;5.50;5.50;;;;;21.43;58.35;101738.47;2112497;27;49007;-64
2022/06/11 04:51:49;;;;;;;;;7.00;6.00;;;;;21.44;58.21;101738.38;2110634;27;47836;-64
2022/06/11 04:52:49;;;;;;;;;7.00;7.00;;;;;21.43;58.47;101733.94;2113059;27;48293;-64
2022/06/11 04:53:50;;;;;;;;;8.00;8.00;;;;;21.43;58.25;101730.38;2111038;27;47710;-62
2022/06/11 04:54:51;;;;;;;;;7.00;7.00;;;;;21.43;58.43;101738.47;2106350;27;47532;-64
2022/06/11 04:55:52;;;;;;;;;7.00;7.00;;;;;21.42;58.50;101736.72;2113255;27;48028;-63
2022/06/11 04:56:52;;;;;;;;;7.75;7.25;;;;;21.41;58.16;101737.69;2110589;27;47590;-63
2022/06/11 04:57:53;;;;;;;;;7.75;7.75;;;;;21.40;58.61;101738.63;2101858;28;47755;-63
2022/06/11 04:58:55;;;;;;;;;5.50;5.50;;;;;21.40;57.93;101735.94;2103740;28;47950;-63
2022/06/11 04:59:55;;;;;;;;;8.75;7.25;;;;;21.38;58.30;101741.41;2110730;27;47335;-63
2022/06/11 05:00:55;;;;;;;;;6.25;6.25;;;;;21.37;58.54;101738.78;2112812;27;47350;-63
2022/06/11 05:01:57;;;;;;;;;9.00;8.00;;;;;21.37;58.04;101739.66;2111200;27;47704;-63
2022/06/11 05:02:59;;;;;;;;;7.00;7.00;;;;;21.37;58.50;101734.28;2110459;27;47389;-63
2022/06/11 05:03:59;;;;;;;;;7.20;7.20;;;;;21.36;58.59;101740.63;2113327;27;46063;-63
2022/06/11 05:05:01;;;;;;;;;8.00;8.00;;;;;21.36;58.48;101740.63;2110864;27;47706;-62
2022/06/11 05:06:01;;;;;;;;;6.25;6.25;;;;;21.36;58.13;101742.44;2099131;27;47696;-63